createdAt,value
2023-03-30T00:00:14.016Z,10.00
2023-03-30T00:02:44.292Z,10.27
2023-03-30T00:05:14.438Z,10.20
2023-03-30T00:07:43.487Z,10.13
2023-03-30T00:10:12.909Z,9.90
2023-03-30T00:12:40.856Z,9.93
2023-03-30T00:15:10.835Z,10.20
2023-03-30T00:17:38.831Z,10.00
2023-03-30T00:20:12.002Z,10.50
2023-03-30T00:22:41.831Z,11.23
2023-03-30T00:25:12.448Z,10.27
2023-03-30T00:27:41.138Z,10.60
2023-03-30T00:30:12.538Z,11.13
2023-03-30T00:32:40.925Z,10.17
2023-03-30T00:35:10.647Z,10.20
2023-03-30T00:37:38.550Z,11.13
2023-03-30T00:40:14.470Z,10.57
2023-03-30T00:42:42.376Z,10.97
2023-03-30T00:45:23.324Z,10.37
2023-03-30T00:47:56.445Z,10.90
2023-03-30T00:50:29.995Z,11.13
2023-03-30T00:53:01.049Z,10.63
2023-03-30T00:55:33.330Z,10.93
2023-03-30T00:58:01.460Z,11.70
2023-03-30T01:00:29.506Z,11.90
2023-03-30T01:03:02.391Z,12.27
2023-03-30T01:05:31.564Z,10.87
2023-03-30T01:08:01.155Z,11.90
2023-03-30T01:10:30.772Z,11.03
2023-03-30T01:12:59.103Z,11.50
2023-03-30T01:15:28.557Z,11.37
2023-03-30T01:18:13.156Z,11.97
2023-03-30T01:21:15.960Z,10.77
2023-03-30T01:24:24.060Z,11.37
2023-03-30T01:26:59.795Z,11.33
2023-03-30T01:29:41.745Z,10.53
2023-03-30T01:32:48.159Z,11.07
2023-03-30T01:35:36.077Z,11.33
2023-03-30T01:38:29.511Z,10.53
2023-03-30T01:41:06.438Z,11.30
2023-03-30T01:43:40.200Z,11.23
2023-03-30T01:46:16.005Z,11.83
2023-03-30T01:48:50.968Z,10.53
2023-03-30T01:51:23.473Z,11.20
2023-03-30T01:53:59.034Z,10.27
2023-03-30T01:56:31.368Z,11.70
2023-03-30T01:59:03.396Z,11.20
2023-03-30T02:01:35.753Z,11.63
2023-03-30T02:04:06.102Z,11.73
2023-03-30T02:06:39.900Z,11.23
2023-03-30T02:09:11.078Z,11.70
2023-03-30T02:11:45.659Z,11.17
2023-03-30T02:14:16.616Z,10.70
2023-03-30T02:16:48.562Z,11.00
2023-03-30T02:19:17.188Z,10.87
2023-03-30T02:21:46.650Z,11.83
2023-03-30T02:24:19.371Z,10.87
2023-03-30T02:26:51.673Z,11.17
2023-03-30T02:29:20.428Z,11.80
2023-03-30T02:31:50.680Z,10.53
2023-03-30T02:34:29.974Z,10.73
2023-03-30T02:37:19.256Z,11.30
2023-03-30T02:40:00.215Z,10.10
2023-03-30T02:43:06.798Z,10.50
2023-03-30T02:45:47.028Z,10.70
2023-03-30T02:48:24.616Z,11.40
2023-03-30T02:51:00.853Z,10.63
2023-03-30T02:53:34.671Z,10.63
2023-03-30T02:56:09.524Z,10.10
2023-03-30T02:58:43.793Z,10.67
2023-03-30T03:01:19.707Z,10.20
2023-03-30T03:03:50.677Z,9.67
2023-03-30T03:06:20.487Z,10.63
2023-03-30T03:08:49.626Z,10.33
2023-03-30T03:11:17.596Z,10.80
2023-03-30T03:13:45.746Z,10.20
2023-03-30T03:16:15.637Z,10.07
2023-03-30T03:18:43.750Z,9.87
2023-03-30T03:21:13.920Z,11.13
2023-03-30T03:23:42.606Z,10.27
2023-03-30T03:26:11.648Z,10.03
2023-03-30T03:28:39.634Z,11.03
2023-03-30T03:31:07.989Z,10.37
2023-03-30T03:33:37.455Z,10.50
2023-03-30T03:36:05.802Z,9.73
2023-03-30T03:38:33.794Z,10.87
2023-03-30T03:41:01.828Z,11.20
2023-03-30T03:43:29.895Z,10.20
2023-03-30T03:45:58.430Z,10.03
2023-03-30T03:48:26.640Z,10.13
2023-03-30T03:50:57.801Z,10.13
2023-03-30T03:53:27.703Z,10.63
2023-03-30T03:55:56.056Z,10.53
2023-03-30T03:58:24.094Z,11.40
2023-03-30T04:00:52.404Z,10.93
2023-03-30T04:03:20.530Z,10.83
2023-03-30T04:05:48.411Z,11.60
2023-03-30T04:08:18.164Z,11.63
2023-03-30T04:10:46.125Z,11.60
2023-03-30T04:13:13.965Z,11.07
2023-03-30T04:15:41.888Z,10.90
2023-03-30T04:18:09.888Z,11.17
2023-03-30T04:20:37.970Z,11.43
2023-03-30T04:23:05.815Z,10.30
2023-03-30T04:25:36.401Z,10.37
2023-03-30T04:28:05.153Z,10.63
2023-03-30T04:30:33.224Z,10.57
2023-03-30T04:33:04.700Z,11.30
2023-03-30T04:35:34.570Z,10.73
2023-03-30T04:38:03.088Z,10.90
2023-03-30T04:40:31.487Z,11.20
2023-03-30T04:43:03.788Z,10.20
2023-03-30T04:45:32.575Z,10.87
2023-03-30T04:48:00.470Z,10.40
2023-03-30T04:50:28.444Z,10.47
2023-03-30T04:52:56.325Z,10.10
2023-03-30T04:55:24.237Z,10.40
2023-03-30T04:57:52.089Z,11.17
2023-03-30T05:00:22.652Z,10.83
2023-03-30T05:02:50.664Z,10.60
2023-03-30T05:05:18.523Z,10.93
2023-03-30T05:07:46.538Z,10.17
2023-03-30T05:10:14.493Z,11.27
2023-03-30T05:12:42.350Z,13.43
2023-03-30T05:15:11.179Z,12.00
2023-03-30T05:17:40.443Z,10.63
2023-03-30T05:20:10.040Z,10.67
2023-03-30T05:22:38.471Z,10.80
2023-03-30T05:25:07.299Z,11.47
2023-03-30T05:27:35.901Z,11.07
2023-03-30T05:30:04.138Z,10.63
2023-03-30T05:32:32.173Z,10.83
2023-03-30T05:35:01.453Z,10.17
2023-03-30T05:37:29.449Z,9.83
2023-03-30T05:39:57.677Z,11.20
2023-03-30T05:42:26.099Z,10.90
2023-03-30T05:44:53.946Z,11.10
2023-03-30T05:47:23.085Z,10.70
2023-03-30T05:49:51.050Z,11.03
2023-03-30T05:52:21.534Z,11.03
2023-03-30T05:54:49.414Z,11.20
2023-03-30T05:57:17.732Z,10.90
2023-03-30T05:59:45.718Z,11.00
2023-03-30T06:02:14.246Z,11.33
2023-03-30T06:04:42.202Z,11.37
2023-03-30T06:07:10.589Z,11.10
2023-03-30T06:09:39.834Z,10.57
2023-03-30T06:12:08.063Z,10.47
2023-03-30T06:14:36.123Z,11.20
2023-03-30T06:17:04.192Z,10.73
2023-03-30T06:19:32.101Z,12.73
2023-03-30T06:22:00.025Z,11.37
2023-03-30T06:24:27.887Z,11.73
2023-03-30T06:26:57.140Z,12.00
2023-03-30T06:29:25.026Z,10.60
2023-03-30T06:31:53.435Z,13.67
2023-03-30T06:34:21.572Z,14.60
2023-03-30T06:36:49.628Z,13.60
2023-03-30T06:39:17.631Z,12.50
2023-03-30T06:41:45.770Z,11.43
2023-03-30T06:44:15.707Z,10.80
2023-03-30T06:46:43.598Z,11.37
2023-03-30T06:49:13.490Z,11.20
2023-03-30T06:51:42.009Z,11.20
2023-03-30T06:54:10.021Z,9.60
2023-03-30T06:56:37.877Z,10.10
2023-03-30T06:59:07.133Z,9.73
2023-03-30T07:01:37.183Z,10.00
2023-03-30T07:04:05.603Z,9.57
2023-03-30T07:06:33.518Z,9.63
2023-03-30T07:09:01.648Z,9.70
2023-03-30T07:11:29.660Z,9.47
2023-03-30T07:13:58.455Z,8.80
2023-03-30T07:16:26.533Z,9.57
2023-03-30T07:18:55.828Z,8.63
2023-03-30T07:21:24.118Z,8.97
2023-03-30T07:23:52.095Z,7.80
2023-03-30T07:26:20.134Z,8.10
2023-03-30T07:28:48.090Z,9.07
2023-03-30T07:31:17.313Z,8.27
2023-03-30T07:33:45.737Z,8.07
2023-03-30T07:36:15.031Z,8.70
2023-03-30T07:38:42.956Z,8.53
2023-03-30T07:41:12.494Z,8.67
2023-03-30T07:43:41.595Z,8.03
2023-03-30T07:46:09.854Z,8.40
2023-03-30T07:48:37.693Z,7.70
2023-03-30T07:51:06.984Z,7.83
2023-03-30T07:53:36.726Z,7.77
2023-03-30T07:56:05.625Z,8.00
2023-03-30T07:58:33.581Z,7.57
2023-03-30T08:01:02.695Z,8.20
2023-03-30T08:03:32.000Z,8.60
2023-03-30T08:06:04.346Z,7.60
2023-03-30T08:08:32.989Z,7.90
2023-03-30T08:11:02.673Z,8.60
2023-03-30T08:13:32.885Z,9.00
2023-03-30T08:16:01.261Z,9.37
2023-03-30T08:18:29.450Z,8.93
2023-03-30T08:20:57.300Z,8.93
2023-03-30T08:23:25.119Z,9.30
2023-03-30T08:25:53.251Z,10.00
2023-03-30T08:28:22.625Z,9.87
2023-03-30T08:30:50.676Z,10.43
2023-03-30T08:33:18.998Z,10.07
2023-03-30T08:35:47.534Z,10.10
2023-03-30T08:38:17.642Z,10.67
2023-03-30T08:40:48.144Z,10.40
2023-03-30T08:43:45.754Z,10.27
2023-03-30T08:46:17.107Z,10.20
2023-03-30T08:48:46.674Z,9.73
2023-03-30T08:51:23.222Z,10.20
2023-03-30T08:53:56.574Z,9.83
2023-03-30T08:56:27.956Z,9.07
2023-03-30T08:59:10.640Z,9.67
2023-03-30T09:01:48.638Z,9.03
2023-03-30T09:04:26.313Z,9.20
2023-03-30T09:06:56.770Z,8.93
2023-03-30T09:09:28.867Z,9.00
2023-03-30T09:12:04.191Z,8.80
2023-03-30T09:14:38.520Z,8.40
2023-03-30T09:17:13.156Z,8.80
2023-03-30T09:19:51.598Z,9.23
2023-03-30T09:22:20.945Z,8.90
2023-03-30T09:24:51.508Z,9.03
2023-03-30T09:27:25.338Z,9.03
2023-03-30T09:29:58.330Z,8.90
2023-03-30T09:32:33.594Z,10.23
2023-03-30T09:35:07.796Z,10.00
2023-03-30T09:37:37.025Z,10.30
2023-03-30T09:40:21.984Z,10.40
2023-03-30T09:42:58.204Z,10.47
2023-03-30T09:45:33.391Z,9.77
2023-03-30T09:48:05.935Z,9.73
2023-03-30T09:50:39.401Z,9.00
2023-03-30T09:53:18.363Z,10.17
2023-03-30T09:55:59.458Z,10.10
2023-03-30T09:58:32.181Z,9.67
2023-03-30T10:01:08.285Z,8.17
2023-03-30T10:03:37.096Z,8.47
2023-03-30T10:06:08.424Z,8.17
2023-03-30T10:08:43.086Z,8.03
2023-03-30T10:11:11.769Z,9.13
2023-03-30T10:13:43.335Z,9.20
2023-03-30T10:16:24.711Z,8.93
2023-03-30T10:18:54.777Z,9.50
2023-03-30T10:21:27.561Z,8.73
2023-03-30T10:24:05.200Z,8.30
2023-03-30T10:26:34.655Z,7.80
2023-03-30T10:29:05.552Z,10.00
2023-03-30T10:31:37.834Z,9.33
2023-03-30T10:34:15.387Z,8.63
2023-03-30T10:36:43.426Z,8.97
2023-03-30T10:39:18.717Z,8.30
2023-03-30T10:41:48.696Z,8.57
2023-03-30T10:44:23.356Z,8.27
2023-03-30T10:46:55.173Z,8.27
2023-03-30T10:49:37.130Z,7.57
2023-03-30T10:52:15.726Z,7.97
2023-03-30T10:54:51.179Z,7.13
2023-03-30T10:57:20.765Z,7.57
2023-03-30T11:00:11.337Z,7.63
2023-03-30T11:03:01.424Z,7.43
2023-03-30T11:05:33.084Z,7.40
2023-03-30T11:08:03.908Z,7.30
2023-03-30T11:10:34.413Z,6.73
2023-03-30T11:13:04.474Z,7.00
2023-03-30T11:15:37.397Z,7.47
2023-03-30T11:18:15.311Z,7.43
2023-03-30T11:20:48.858Z,7.63
2023-03-30T11:23:22.853Z,7.80
2023-03-30T11:26:03.856Z,7.73
2023-03-30T11:28:52.932Z,7.90
2023-03-30T11:31:33.643Z,8.10
2023-03-30T11:34:11.796Z,7.93
2023-03-30T11:36:48.636Z,9.00
2023-03-30T11:39:31.636Z,8.47
2023-03-30T11:42:10.804Z,8.57
2023-03-30T11:44:38.743Z,9.30
2023-03-30T11:47:24.325Z,9.60
2023-03-30T11:50:05.863Z,8.97
2023-03-30T11:52:38.361Z,9.37
2023-03-30T11:55:31.910Z,9.07
2023-03-30T11:58:10.550Z,8.97
2023-03-30T12:01:01.199Z,9.57
2023-03-30T12:03:37.901Z,9.47
2023-03-30T12:06:32.363Z,10.33
2023-03-30T12:09:16.694Z,10.00
2023-03-30T12:11:49.392Z,9.87
2023-03-30T12:14:32.966Z,9.53
2023-03-30T12:17:07.808Z,10.10
2023-03-30T12:19:55.647Z,10.10
2023-03-30T12:22:32.377Z,9.70
2023-03-30T12:25:08.594Z,9.90
2023-03-30T12:27:38.812Z,9.77
2023-03-30T12:30:15.769Z,9.23
2023-03-30T12:33:02.585Z,9.17
2023-03-30T12:35:58.731Z,8.27
2023-03-30T12:38:38.369Z,9.67
2023-03-30T12:41:14.646Z,9.60
2023-03-30T12:44:00.769Z,8.67
2023-03-30T12:46:38.202Z,9.20
2023-03-30T12:49:16.462Z,8.70
2023-03-30T12:52:02.015Z,9.00
2023-03-30T12:55:05.850Z,8.77
2023-03-30T12:57:46.133Z,8.70
2023-03-30T13:00:32.874Z,9.13
2023-03-30T13:03:26.576Z,8.83
2023-03-30T13:05:57.261Z,8.47
2023-03-30T13:08:32.736Z,8.37
2023-03-30T13:11:12.175Z,7.60
2023-03-30T13:13:53.460Z,7.87
2023-03-30T13:16:47.016Z,7.97
2023-03-30T13:19:22.054Z,7.67
2023-03-30T13:21:51.526Z,7.33
2023-03-30T13:24:38.391Z,7.00
2023-03-30T13:27:25.327Z,7.90
2023-03-30T13:29:57.016Z,7.80
2023-03-30T13:32:50.876Z,6.30
2023-03-30T13:35:35.906Z,6.70
2023-03-30T13:38:48.098Z,5.83
2023-03-30T13:41:30.972Z,5.03
2023-03-30T13:44:24.057Z,3.97
2023-03-30T13:46:54.917Z,3.83
2023-03-30T13:49:33.744Z,3.40
2023-03-30T13:52:05.381Z,2.90
2023-03-30T13:54:35.356Z,3.17
2023-03-30T13:57:09.417Z,3.50
2023-03-30T13:59:43.648Z,2.93
2023-03-30T14:02:15.896Z,3.30
2023-03-30T14:04:44.574Z,3.37
2023-03-30T14:07:16.883Z,3.20
2023-03-30T14:09:45.670Z,3.20
2023-03-30T14:12:15.051Z,3.47
2023-03-30T14:14:47.412Z,3.13
2023-03-30T14:17:20.001Z,3.40
2023-03-30T14:20:02.559Z,3.27
2023-03-30T14:22:31.777Z,3.10
2023-03-30T14:25:00.822Z,2.80
2023-03-30T14:27:34.410Z,2.83
2023-03-30T14:30:04.497Z,3.23
2023-03-30T14:32:32.488Z,3.00
2023-03-30T14:35:00.468Z,3.20
2023-03-30T14:37:31.880Z,3.00
2023-03-30T14:39:59.766Z,2.83
2023-03-30T14:42:33.758Z,2.90
2023-03-30T14:45:03.504Z,2.80
2023-03-30T14:47:31.574Z,2.97
2023-03-30T14:50:02.376Z,3.10
2023-03-30T14:52:35.167Z,3.50
2023-03-30T14:55:08.519Z,2.70
2023-03-30T14:57:40.671Z,2.87
2023-03-30T15:00:18.214Z,3.13
2023-03-30T15:02:47.131Z,3.00
2023-03-30T15:05:17.983Z,2.60
2023-03-30T15:07:49.867Z,2.90
2023-03-30T15:10:26.631Z,3.23
2023-03-30T15:12:57.726Z,2.80
2023-03-30T15:15:30.776Z,3.17
2023-03-30T15:17:59.637Z,2.77
2023-03-30T15:20:30.695Z,3.20
2023-03-30T15:22:58.896Z,2.77
2023-03-30T15:25:32.670Z,3.17
2023-03-30T15:28:03.689Z,2.97
2023-03-30T15:30:37.003Z,2.80
2023-03-30T15:33:07.495Z,3.40
2023-03-30T15:35:38.308Z,2.90
2023-03-30T15:38:16.838Z,3.53
2023-03-30T15:40:46.942Z,3.30
2023-03-30T15:43:20.053Z,3.30
2023-03-30T15:45:53.200Z,3.13
2023-03-30T15:48:24.313Z,2.90
2023-03-30T15:50:56.408Z,2.70
2023-03-30T15:53:35.232Z,3.03
2023-03-30T15:56:04.236Z,2.90
2023-03-30T15:58:34.369Z,3.20
2023-03-30T16:01:04.672Z,3.20
2023-03-30T16:03:36.670Z,3.43
2023-03-30T16:06:04.559Z,3.57
2023-03-30T16:08:32.487Z,3.40
2023-03-30T16:11:00.912Z,3.73
2023-03-30T16:13:28.867Z,3.40
2023-03-30T16:15:57.816Z,3.83
2023-03-30T16:18:27.173Z,4.07
2023-03-30T16:20:55.022Z,3.03
2023-03-30T16:23:22.870Z,4.00
2023-03-30T16:25:50.815Z,3.40
2023-03-30T16:28:19.749Z,4.00
2023-03-30T16:30:50.050Z,4.20
2023-03-30T16:33:17.899Z,3.87
2023-03-30T16:35:47.242Z,4.20
2023-03-30T16:38:17.598Z,3.77
2023-03-30T16:40:46.946Z,3.60
2023-03-30T16:43:14.892Z,3.73
2023-03-30T16:45:42.790Z,3.40
2023-03-30T16:48:14.863Z,3.27
2023-03-30T16:50:44.880Z,3.40
2023-03-30T16:53:14.487Z,3.40
2023-03-30T16:55:42.653Z,4.10
2023-03-30T16:58:14.537Z,3.50
2023-03-30T17:00:44.468Z,3.63
2023-03-30T17:03:12.725Z,3.70
2023-03-30T17:05:41.323Z,3.73
2023-03-30T17:08:19.092Z,4.10
2023-03-30T17:10:46.946Z,4.80
2023-03-30T17:13:14.905Z,4.30
2023-03-30T17:15:42.832Z,2.93
2023-03-30T17:18:14.873Z,3.50
2023-03-30T17:20:45.770Z,3.53
2023-03-30T17:23:13.841Z,3.00
2023-03-30T17:25:43.928Z,3.20
2023-03-30T17:28:21.396Z,3.10
2023-03-30T17:30:50.047Z,3.00
2023-03-30T17:33:18.182Z,1.97
2023-03-30T17:35:49.733Z,2.57
2023-03-30T17:38:18.302Z,2.33
2023-03-30T17:40:48.934Z,1.90
2023-03-30T17:43:17.043Z,2.93
2023-03-30T17:45:46.508Z,1.83
2023-03-30T17:48:17.579Z,3.50
2023-03-30T17:50:47.322Z,2.50
2023-03-30T17:53:17.005Z,1.97
2023-03-30T17:55:46.327Z,2.20
2023-03-30T17:58:20.029Z,2.40
2023-03-30T18:00:49.471Z,2.70
2023-03-30T18:03:19.034Z,2.37
2023-03-30T18:05:47.849Z,2.30
2023-03-30T18:08:18.506Z,2.20
2023-03-30T18:10:48.133Z,2.60
2023-03-30T18:13:17.774Z,2.70
2023-03-30T18:15:49.461Z,2.40
2023-03-30T18:18:23.045Z,2.63
2023-03-30T18:20:52.178Z,3.60
2023-03-30T18:23:20.763Z,2.83
2023-03-30T18:25:48.994Z,2.87
2023-03-30T18:28:20.989Z,3.13
2023-03-30T18:30:49.696Z,3.43
2023-03-30T18:33:18.088Z,2.60
2023-03-30T18:35:48.680Z,2.73
2023-03-30T18:38:18.356Z,2.40
2023-03-30T18:40:49.495Z,2.40
2023-03-30T18:43:19.299Z,2.30
2023-03-30T18:45:50.184Z,2.10
2023-03-30T18:48:21.260Z,1.93
2023-03-30T18:50:51.534Z,2.13
2023-03-30T18:53:22.899Z,2.17
2023-03-30T18:55:52.754Z,3.07
2023-03-30T18:58:24.693Z,2.40
2023-03-30T19:00:54.298Z,2.40
2023-03-30T19:03:23.752Z,2.60
2023-03-30T19:05:52.675Z,2.10
2023-03-30T19:08:22.676Z,2.40
2023-03-30T19:10:53.320Z,2.23
2023-03-30T19:13:24.072Z,3.20
2023-03-30T19:15:53.404Z,3.10
2023-03-30T19:18:22.147Z,3.03
2023-03-30T19:20:51.630Z,2.90
2023-03-30T19:23:21.852Z,3.57
2023-03-30T19:25:50.297Z,3.07
2023-03-30T19:28:20.294Z,3.43
2023-03-30T19:30:49.888Z,4.20
2023-03-30T19:33:20.840Z,4.37
2023-03-30T19:35:48.939Z,4.30
2023-03-30T19:38:16.969Z,4.27
2023-03-30T19:40:45.069Z,4.60
2023-03-30T19:43:13.143Z,4.63
2023-03-30T19:45:41.429Z,4.37
2023-03-30T19:48:10.933Z,4.47
2023-03-30T19:50:40.806Z,4.13
2023-03-30T19:53:09.538Z,4.93
2023-03-30T19:55:38.149Z,4.80
2023-03-30T19:58:06.041Z,4.97
2023-03-30T20:00:34.910Z,4.50
2023-03-30T20:03:03.250Z,5.13
2023-03-30T20:05:33.072Z,4.50
2023-03-30T20:08:10.511Z,3.93
2023-03-30T20:10:49.207Z,3.40
2023-03-30T20:13:17.393Z,3.63
2023-03-30T20:15:46.426Z,3.50
2023-03-30T20:18:14.350Z,3.10
2023-03-30T20:20:43.717Z,3.43
2023-03-30T20:23:11.577Z,3.17
2023-03-30T20:25:40.491Z,3.30
2023-03-30T20:28:08.669Z,3.17
2023-03-30T20:30:38.911Z,2.83
2023-03-30T20:33:08.818Z,3.00
2023-03-30T20:35:37.556Z,2.97
2023-03-30T20:38:08.482Z,2.80
2023-03-30T20:40:36.979Z,2.77
2023-03-30T20:43:10.683Z,3.13
2023-03-30T20:45:46.022Z,3.33
2023-03-30T20:48:27.068Z,2.97
2023-03-30T20:50:56.196Z,3.27
2023-03-30T20:53:25.961Z,3.27
2023-03-30T20:55:53.807Z,3.30
2023-03-30T20:58:23.351Z,3.10
2023-03-30T21:00:53.066Z,2.80
2023-03-30T21:03:21.609Z,3.03
2023-03-30T21:05:59.902Z,3.33
2023-03-30T21:08:29.969Z,3.57
2023-03-30T21:10:57.928Z,3.77
2023-03-30T21:13:26.003Z,3.60
2023-03-30T21:15:57.396Z,3.27
2023-03-30T21:18:25.537Z,3.37
2023-03-30T21:20:53.884Z,3.33
2023-03-30T21:23:22.260Z,3.80
2023-03-30T21:25:51.653Z,3.30
2023-03-30T21:28:19.495Z,3.30
2023-03-30T21:30:48.885Z,3.50
2023-03-30T21:33:17.381Z,3.90
2023-03-30T21:35:49.682Z,3.93
2023-03-30T21:38:17.974Z,3.73
2023-03-30T21:41:00.804Z,3.47
2023-03-30T21:43:30.083Z,3.23
2023-03-30T21:45:59.930Z,3.43
2023-03-30T21:48:29.607Z,2.77
2023-03-30T21:51:01.623Z,3.17
2023-03-30T21:53:31.106Z,3.47
2023-03-30T21:56:01.630Z,4.77
2023-03-30T21:58:29.829Z,4.93
2023-03-30T22:01:09.060Z,5.43
2023-03-30T22:03:40.937Z,4.60
2023-03-30T22:06:10.106Z,4.97
2023-03-30T22:08:38.298Z,5.57
2023-03-30T22:11:10.463Z,4.07
2023-03-30T22:13:38.425Z,3.20
2023-03-30T22:16:09.123Z,4.10
2023-03-30T22:18:37.288Z,4.53
2023-03-30T22:21:07.177Z,5.00
2023-03-30T22:23:35.183Z,4.57
2023-03-30T22:26:03.338Z,4.60
2023-03-30T22:28:32.752Z,3.90
2023-03-30T22:31:00.664Z,4.33
2023-03-30T22:33:28.895Z,4.33
2023-03-30T22:35:57.649Z,4.03
2023-03-30T22:38:25.609Z,3.93
2023-03-30T22:41:04.594Z,3.70
2023-03-30T22:43:34.887Z,3.93
2023-03-30T22:46:03.581Z,3.93
2023-03-30T22:48:32.315Z,3.40
2023-03-30T22:51:03.302Z,2.50
2023-03-30T22:53:32.170Z,3.30
2023-03-30T22:56:00.093Z,2.87
2023-03-30T22:58:28.431Z,2.87
2023-03-30T23:01:02.274Z,2.80
2023-03-30T23:03:30.644Z,2.50
2023-03-30T23:06:02.455Z,2.20
2023-03-30T23:08:31.082Z,2.10
2023-03-30T23:11:05.166Z,2.73
2023-03-30T23:13:37.175Z,2.60
2023-03-30T23:16:08.325Z,2.37
2023-03-30T23:18:36.494Z,2.40
2023-03-30T23:21:06.818Z,2.13
2023-03-30T23:23:35.836Z,2.00
2023-03-30T23:26:09.231Z,2.10
2023-03-30T23:28:39.016Z,1.73
2023-03-30T23:31:13.519Z,2.03
2023-03-30T23:33:41.733Z,1.50
2023-03-30T23:36:13.488Z,1.90
2023-03-30T23:38:41.801Z,1.70
2023-03-30T23:41:11.867Z,1.90
2023-03-30T23:43:39.811Z,1.67
2023-03-30T23:46:08.091Z,1.40
2023-03-30T23:48:37.675Z,1.20
2023-03-30T23:51:06.311Z,0.90
2023-03-30T23:53:34.887Z,1.67
2023-03-30T23:56:05.969Z,1.50
2023-03-30T23:58:34.241Z,1.60
